Time;durP1;ratioP1;P1;durP2;ratioP2;P2;SDS_P1;SDS_P2;PMS_P1;PMS_P2;Temp;Humidity;BMP_temperature;BMP_pressure;BME280_temperature;BME280_humidity;BME280_pressure;Samples;Min_cycle;Max_cycle;Signal;HPM_P1;HPM_P2
2022/04/30 00:00:12;;;;;;;14.07;6.88;;;8.20;99.90;;;;;;4863463;29;20056;-76
2022/04/30 00:02:37;;;;;;;18.15;7.43;;;8.10;99.90;;;;;;4863533;29;20049;-76
2022/04/30 00:05:03;;;;;;;16.65;7.65;;;8.10;99.90;;;;;;4863552;29;20048;-76
2022/04/30 00:07:29;;;;;;;17.48;7.60;;;8.10;99.90;;;;;;4878951;29;20402;-76
2022/04/30 00:09:55;;;;;;;22.35;8.52;;;8.10;99.90;;;;;;4878815;29;20045;-76
2022/04/30 00:12:21;;;;;;;14.13;7.38;;;8.00;99.90;;;;;;4879968;29;20169;-76
2022/04/30 00:14:47;;;;;;;24.17;9.32;;;8.00;99.90;;;;;;4863318;29;20378;-75
2022/04/30 00:17:14;;;;;;;23.20;7.57;;;8.00;99.90;;;;;;4863194;29;20060;-76
2022/04/30 00:19:39;;;;;;;15.90;8.27;;;8.10;99.90;;;;;;4878838;29;20534;-76
2022/04/30 00:22:05;;;;;;;17.67;8.55;;;8.10;99.90;;;;;;4879990;29;20048;-76
2022/04/30 00:24:31;;;;;;;16.70;7.55;;;8.10;99.90;;;;;;4863419;29;20045;-76
2022/04/30 00:26:59;;;;;;;23.88;8.30;;;8.20;99.90;;;;;;4879845;29;20389;-76
2022/04/30 00:29:26;;;;;;;14.38;6.82;;;8.20;99.90;;;;;;4879954;29;20051;-76
2022/04/30 00:31:54;;;;;;;17.45;7.43;;;8.20;99.90;;;;;;4879808;29;20109;-76
2022/04/30 00:34:20;;;;;;;15.60;7.15;;;8.20;99.90;;;;;;4862982;29;20132;-76
2022/04/30 00:36:46;;;;;;;17.95;8.60;;;8.20;99.90;;;;;;4862516;29;20084;-75
2022/04/30 00:39:11;;;;;;;15.73;7.95;;;8.10;99.90;;;;;;4862986;29;20091;-75
2022/04/30 00:41:47;;;;;;;20.58;7.68;;;8.20;99.90;;;;;;4878819;29;20096;-75
2022/04/30 00:44:18;;;;;;;15.10;6.75;;;8.10;99.90;;;;;;4862866;29;20068;-76
2022/04/30 00:46:43;;;;;;;15.43;7.50;;;8.10;99.90;;;;;;4863362;29;20037;-76
2022/04/30 00:49:09;;;;;;;13.65;6.55;;;8.20;99.90;;;;;;4862993;29;20565;-81
2022/04/30 00:51:38;;;;;;;12.82;6.60;;;8.10;99.90;;;;;;4862965;29;20076;-78
2022/04/30 00:54:05;;;;;;;15.05;6.80;;;8.20;99.90;;;;;;4863142;29;20383;-78
2022/04/30 00:56:58;;;;;;;15.15;6.80;;;8.10;99.90;;;;;;4862943;29;20049;-78
2022/04/30 00:59:25;;;;;;;14.95;6.72;;;8.10;99.90;;;;;;4871889;29;20096;-78
2022/04/30 01:01:51;;;;;;;19.63;7.35;;;8.10;99.90;;;;;;4879658;29;20132;-78
2022/04/30 01:04:18;;;;;;;20.67;6.18;;;8.10;99.90;;;;;;4863074;29;20127;-78
2022/04/30 01:06:57;;;;;;;17.88;7.20;;;8.10;99.90;;;;;;4862798;29;20056;-78
2022/04/30 01:09:31;;;;;;;16.58;8.10;;;8.00;99.90;;;;;;4862921;29;20127;-78
2022/04/30 01:12:01;;;;;;;15.93;6.75;;;8.00;99.90;;;;;;4863200;29;20080;-78
2022/04/30 01:14:29;;;;;;;16.88;6.60;;;8.00;99.90;;;;;;4863123;29;20048;-78
2022/04/30 01:16:59;;;;;;;14.88;6.97;;;8.00;99.90;;;;;;4862740;29;20045;-78
2022/04/30 01:19:27;;;;;;;18.73;9.30;;;8.00;99.90;;;;;;4879732;29;20056;-77
2022/04/30 01:21:59;;;;;;;17.70;7.45;;;7.90;99.90;;;;;;4863022;29;20390;-78
2022/04/30 01:24:27;;;;;;;18.05;7.72;;;7.90;99.90;;;;;;4863111;29;20065;-78
2022/04/30 01:26:54;;;;;;;19.25;8.85;;;7.90;99.90;;;;;;4879431;29;20045;-78
2022/04/30 01:29:24;;;;;;;20.88;8.50;;;7.90;99.90;;;;;;4879337;29;20132;-78
2022/04/30 01:37:23;;;;;;;22.70;9.88;;;7.80;99.90;;;;;;4879260;29;20498;-78
2022/04/30 01:39:52;;;;;;;19.80;8.45;;;7.70;99.90;;;;;;4862719;29;20101;-78
2022/04/30 01:42:18;;;;;;;20.30;10.13;;;7.70;99.90;;;;;;4862428;29;20068;-78
2022/04/30 01:44:46;;;;;;;19.38;8.23;;;7.80;99.90;;;;;;4862515;29;20053;-78
2022/04/30 01:47:14;;;;;;;18.25;9.13;;;7.80;99.90;;;;;;4881210;29;20063;-78
2022/04/30 01:49:40;;;;;;;19.85;8.02;;;7.90;99.90;;;;;;4866184;29;20045;-78
2022/04/30 01:52:07;;;;;;;19.80;9.23;;;7.80;99.90;;;;;;4866586;29;20257;-78
2022/04/30 01:54:34;;;;;;;15.48;8.48;;;7.90;99.90;;;;;;4865919;29;20056;-78
2022/04/30 01:56:59;;;;;;;24.40;8.82;;;7.90;99.90;;;;;;4865653;29;20049;-78
2022/04/30 01:59:25;;;;;;;19.55;8.95;;;7.90;99.90;;;;;;4865669;29;20049;-79
2022/04/30 02:01:51;;;;;;;17.27;8.63;;;7.90;99.90;;;;;;4865969;29;20107;-79
2022/04/30 02:04:18;;;;;;;20.92;9.43;;;7.90;99.90;;;;;;4865605;29;20106;-79
2022/04/30 02:06:45;;;;;;;14.98;8.27;;;7.80;99.90;;;;;;4865462;29;20052;-80
2022/04/30 02:09:14;;;;;;;19.13;9.23;;;7.80;99.90;;;;;;4865669;29;20049;-80
2022/04/30 02:11:40;;;;;;;21.02;9.32;;;7.80;99.90;;;;;;4865687;29;20064;-79
2022/04/30 02:14:10;;;;;;;22.60;10.77;;;7.80;99.90;;;;;;4882112;29;20105;-76
2022/04/30 02:16:38;;;;;;;23.10;9.45;;;7.80;99.90;;;;;;4865427;29;20049;-76
2022/04/30 02:19:07;;;;;;;20.35;9.38;;;7.80;99.90;;;;;;4882078;29;20116;-76
2022/04/30 02:21:34;;;;;;;21.75;9.10;;;7.80;99.90;;;;;;4865242;29;20075;-76
2022/04/30 02:24:00;;;;;;;21.98;11.13;;;7.80;99.90;;;;;;4865461;29;20486;-76
2022/04/30 02:26:27;;;;;;;24.48;10.70;;;7.80;99.90;;;;;;4881976;29;20089;-76
2022/04/30 02:28:57;;;;;;;19.50;9.70;;;7.80;99.90;;;;;;4864924;29;20489;-76
2022/04/30 02:31:25;;;;;;;21.55;9.35;;;7.80;99.90;;;;;;4865165;29;20073;-76
2022/04/30 02:33:54;;;;;;;20.65;9.40;;;7.90;99.90;;;;;;4865226;29;20063;-76
2022/04/30 02:36:22;;;;;;;18.20;8.63;;;7.90;99.90;;;;;;4864856;29;20517;-76
2022/04/30 02:38:47;;;;;;;18.42;8.52;;;7.90;99.90;;;;;;4865232;29;20049;-76
2022/04/30 02:41:13;;;;;;;23.77;9.82;;;8.00;99.90;;;;;;4864908;29;20049;-75
2022/04/30 02:43:39;;;;;;;18.45;8.32;;;8.00;99.90;;;;;;4864924;29;20157;-76
2022/04/30 02:46:04;;;;;;;21.23;7.97;;;8.00;99.90;;;;;;4864914;29;20089;-76
2022/04/30 02:48:30;;;;;;;24.73;8.63;;;8.10;99.90;;;;;;4864745;29;20052;-76
2022/04/30 02:50:59;;;;;;;17.95;9.00;;;8.10;99.90;;;;;;4864985;29;20055;-75
2022/04/30 02:53:24;;;;;;;16.73;8.43;;;8.10;99.90;;;;;;4881303;29;20438;-76
2022/04/30 02:55:50;;;;;;;15.95;8.10;;;8.20;99.90;;;;;;4864608;29;20477;-76
2022/04/30 03:01:00;;;;;;;18.40;8.20;;;8.20;99.90;;;;;;4864484;29;20072;-76
2022/04/30 03:03:29;;;;;;;24.98;9.05;;;8.20;99.90;;;;;;4864705;29;20061;-76
2022/04/30 03:05:56;;;;;;;17.92;8.63;;;8.20;99.90;;;;;;4864467;29;20532;-76
2022/04/30 03:08:25;;;;;;;17.50;7.82;;;8.30;99.90;;;;;;4864487;29;20068;-76
2022/04/30 03:10:53;;;;;;;19.98;9.52;;;8.30;99.90;;;;;;4864370;29;20482;-76
2022/04/30 03:13:20;;;;;;;19.27;8.82;;;8.30;99.90;;;;;;4864513;29;20052;-76
2022/04/30 03:15:48;;;;;;;22.00;9.20;;;8.30;99.90;;;;;;4864426;29;20105;-76
2022/04/30 03:23:32;;;;;;;24.52;10.40;;;8.30;99.90;;;;;;4864281;29;20072;-76
2022/04/30 03:25:58;;;;;;;18.20;9.05;;;8.30;99.90;;;;;;4864297;29;20155;-75
2022/04/30 03:28:23;;;;;;;23.38;9.25;;;8.30;99.90;;;;;;4864448;29;20518;-76
2022/04/30 03:30:49;;;;;;;18.98;9.25;;;8.30;99.90;;;;;;4864050;29;20116;-76
2022/04/30 03:33:15;;;;;;;24.13;9.88;;;8.30;99.90;;;;;;4864061;29;20128;-76
2022/04/30 03:35:41;;;;;;;22.90;9.82;;;8.30;99.90;;;;;;4864224;29;20049;-76
2022/04/30 03:38:07;;;;;;;24.13;9.90;;;8.30;99.90;;;;;;4864052;29;20374;-76
2022/04/30 03:40:38;;;;;;;25.63;10.82;;;8.30;99.90;;;;;;4863847;29;20045;-76
2022/04/30 03:43:05;;;;;;;19.50;10.23;;;8.30;99.90;;;;;;4863805;29;20366;-76
2022/04/30 03:45:30;;;;;;;22.73;9.85;;;8.30;99.90;;;;;;4864071;29;20057;-76
2022/04/30 03:47:56;;;;;;;25.67;10.18;;;8.30;99.90;;;;;;4879303;29;20409;-76
2022/04/30 03:50:21;;;;;;;27.63;10.65;;;8.30;99.90;;;;;;4864025;29;20088;-76
2022/04/30 03:52:47;;;;;;;24.48;11.30;;;8.30;99.90;;;;;;4880466;29;20049;-76
2022/04/30 03:55:16;;;;;;;20.90;10.18;;;8.30;99.90;;;;;;4879228;29;20041;-76
2022/04/30 03:57:42;;;;;;;22.38;9.93;;;8.30;99.90;;;;;;4863557;29;20128;-76
2022/04/30 04:00:10;;;;;;;25.98;11.23;;;8.30;99.90;;;;;;4863846;29;20044;-76
2022/04/30 04:02:39;;;;;;;24.52;10.02;;;8.30;99.90;;;;;;4880400;29;20068;-76
2022/04/30 04:05:07;;;;;;;24.52;10.15;;;8.30;99.90;;;;;;4880152;29;20048;-76
2022/04/30 04:07:33;;;;;;;21.77;10.30;;;8.30;99.90;;;;;;4878918;29;20155;-76
2022/04/30 04:09:59;;;;;;;29.67;10.35;;;8.30;99.90;;;;;;4863092;29;20490;-76
2022/04/30 04:12:24;;;;;;;24.10;10.60;;;8.30;99.90;;;;;;4863323;29;20113;-76
2022/04/30 04:17:37;;;;;;;21.55;10.30;;;8.30;99.90;;;;;;4862968;29;20097;-75
2022/04/30 04:20:05;;;;;;;28.88;12.20;;;8.30;99.90;;;;;;4878635;29;20045;-76
2022/04/30 04:22:31;;;;;;;25.77;10.75;;;8.30;99.90;;;;;;4878649;29;20049;-75
2022/04/30 04:28:01;;;;;;;26.75;11.43;;;8.30;99.90;;;;;;4789423;29;20065;-75
2022/04/30 04:30:28;;;;;;;28.92;11.32;;;8.30;99.90;;;;;;4789430;29;20055;-76
2022/04/30 04:32:55;;;;;;;23.70;10.55;;;8.30;99.90;;;;;;4824971;29;20057;-76
2022/04/30 04:35:21;;;;;;;27.10;11.55;;;8.30;99.90;;;;;;4862998;29;20052;-76
2022/04/30 04:37:47;;;;;;;30.85;11.30;;;8.30;99.90;;;;;;4878364;29;20060;-76
2022/04/30 04:40:14;;;;;;;27.17;11.23;;;8.30;99.90;;;;;;4863136;29;20045;-76
2022/04/30 04:42:41;;;;;;;29.25;11.27;;;8.40;99.90;;;;;;4879476;29;20045;-75
2022/04/30 04:45:08;;;;;;;28.48;11.45;;;8.30;99.90;;;;;;4862672;29;20422;-76
2022/04/30 04:47:35;;;;;;;31.85;10.38;;;8.30;99.90;;;;;;4862797;29;20060;-76
2022/04/30 04:50:03;;;;;;;34.85;12.90;;;8.30;99.90;;;;;;4863115;29;20049;-75
2022/04/30 04:52:30;;;;;;;32.47;11.90;;;8.40;99.90;;;;;;4863072;29;20128;-75
2022/04/30 04:54:57;;;;;;;21.45;9.98;;;8.40;99.90;;;;;;4879366;29;20528;-76
2022/04/30 04:57:23;;;;;;;33.83;12.85;;;8.30;99.90;;;;;;4862602;29;20088;-76
2022/04/30 04:59:49;;;;;;;28.27;11.93;;;8.30;99.90;;;;;;4879443;29;20092;-75
2022/04/30 05:02:16;;;;;;;24.70;11.65;;;8.40;99.90;;;;;;4862802;29;20413;-75
2022/04/30 05:04:42;;;;;;;21.02;10.90;;;8.40;99.90;;;;;;4862997;29;20060;-75
2022/04/30 05:07:07;;;;;;;25.75;11.02;;;8.50;99.90;;;;;;4862661;29;20463;-75
2022/04/30 05:09:33;;;;;;;28.33;10.27;;;8.60;99.90;;;;;;4862611;29;20056;-75
2022/04/30 05:12:02;;;;;;;17.60;8.07;;;8.70;99.90;;;;;;4862701;29;20051;-75
2022/04/30 05:14:32;;;;;;;28.40;8.57;;;8.60;99.90;;;;;;4862679;29;20057;-75
2022/04/30 05:17:01;;;;;;;26.60;8.35;;;8.50;99.90;;;;;;4862448;29;20466;-75
2022/04/30 05:19:27;;;;;;;15.57;6.72;;;8.30;99.90;;;;;;4862636;29;20051;-75
2022/04/30 05:21:52;;;;;;;16.08;6.50;;;8.20;99.90;;;;;;4864159;29;20057;-75
2022/04/30 05:24:18;;;;;;;19.77;8.65;;;8.10;99.90;;;;;;4866286;29;20080;-75
2022/04/30 05:26:44;;;;;;;18.80;6.88;;;8.00;99.90;;;;;;4866232;29;20053;-75
2022/04/30 05:29:10;;;;;;;15.40;6.65;;;8.00;99.90;;;;;;4865980;29;20041;-75
2022/04/30 05:31:35;;;;;;;18.08;6.35;;;7.90;99.90;;;;;;4865974;29;20060;-75
2022/04/30 05:34:01;;;;;;;17.08;7.07;;;7.90;99.90;;;;;;4865979;29;20105;-75
2022/04/30 05:36:27;;;;;;;13.55;7.05;;;7.90;99.90;;;;;;4865750;29;20516;-75
2022/04/30 05:38:53;;;;;;;19.02;8.02;;;7.90;99.90;;;;;;4866026;29;20053;-75
2022/04/30 05:41:18;;;;;;;15.05;7.10;;;7.90;99.90;;;;;;4865862;29;20516;-75
2022/04/30 05:43:44;;;;;;;14.90;7.05;;;7.90;99.90;;;;;;4865816;29;20060;-76
2022/04/30 05:46:12;;;;;;;17.35;7.75;;;8.00;99.90;;;;;;4865725;29;20127;-76
2022/04/30 05:48:37;;;;;;;18.88;7.50;;;8.00;99.90;;;;;;4865899;29;20049;-76
2022/04/30 05:51:03;;;;;;;13.27;7.07;;;8.00;99.90;;;;;;4865638;29;20489;-76
2022/04/30 05:53:29;;;;;;;17.58;8.05;;;8.00;99.90;;;;;;4865786;29;20048;-76
2022/04/30 05:55:54;;;;;;;14.90;7.88;;;8.10;99.90;;;;;;4865639;29;20429;-76
2022/04/30 05:58:20;;;;;;;17.13;7.57;;;8.10;99.90;;;;;;4865628;29;20053;-76
2022/04/30 06:00:46;;;;;;;16.63;8.35;;;8.10;99.90;;;;;;4865491;29;20105;-76
2022/04/30 06:03:12;;;;;;;19.42;8.38;;;8.10;99.90;;;;;;4865435;29;20053;-76
2022/04/30 06:05:38;;;;;;;15.45;8.52;;;8.20;99.90;;;;;;4865358;29;20056;-76
2022/04/30 06:08:05;;;;;;;15.77;7.65;;;8.20;99.90;;;;;;4865624;29;20060;-76
2022/04/30 06:10:31;;;;;;;17.42;7.72;;;8.20;99.90;;;;;;4865623;29;20057;-76
2022/04/30 06:12:57;;;;;;;14.93;8.20;;;8.30;99.90;;;;;;4865543;29;20102;-76
2022/04/30 06:15:23;;;;;;;17.00;8.75;;;8.30;99.90;;;;;;4882062;29;20132;-76
2022/04/30 06:17:49;;;;;;;13.40;7.25;;;8.30;99.90;;;;;;4865435;29;20081;-76
2022/04/30 06:20:14;;;;;;;14.57;7.45;;;8.40;99.90;;;;;;4882030;29;20150;-76
2022/04/30 06:22:40;;;;;;;13.15;8.13;;;8.40;99.90;;;;;;4865274;29;20060;-76
2022/04/30 06:25:06;;;;;;;12.23;7.13;;;8.50;99.90;;;;;;4865310;29;20055;-76
2022/04/30 06:27:33;;;;;;;11.85;6.93;;;8.50;99.90;;;;;;4865198;29;20136;-76
2022/04/30 06:29:59;;;;;;;13.48;6.60;;;8.60;99.90;;;;;;4864941;29;20472;-77
2022/04/30 06:32:25;;;;;;;12.27;6.40;;;8.60;99.90;;;;;;4864621;29;20121;-76
2022/04/30 06:34:50;;;;;;;13.38;6.25;;;8.70;99.90;;;;;;4864558;29;20501;-76
2022/04/30 06:37:17;;;;;;;10.25;6.70;;;8.60;99.90;;;;;;4881316;29;20048;-76
2022/04/30 06:39:43;;;;;;;10.68;6.68;;;8.70;99.90;;;;;;4881687;29;20049;-76
2022/04/30 06:42:09;;;;;;;12.32;6.68;;;8.70;99.90;;;;;;4864956;29;20049;-76
2022/04/30 06:44:35;;;;;;;10.75;6.50;;;8.80;99.90;;;;;;4864549;29;20063;-77
2022/04/30 06:47:01;;;;;;;11.30;5.78;;;8.80;99.90;;;;;;4881557;29;20124;-77
2022/04/30 06:49:26;;;;;;;11.40;6.03;;;8.80;99.90;;;;;;4864554;29;20120;-76
2022/04/30 06:51:52;;;;;;;10.80;6.10;;;8.90;99.90;;;;;;4864742;29;20056;-76
2022/04/30 06:57:11;;;;;;;9.65;5.47;;;9.00;99.90;;;;;;4881351;29;20067;-77
2022/04/30 06:59:41;;;;;;;8.88;4.85;;;9.10;99.90;;;;;;4864864;29;20057;-76
2022/04/30 07:02:22;;;;;;;10.32;6.25;;;9.20;99.90;;;;;;4864673;29;20061;-77
2022/04/30 07:04:50;;;;;;;10.73;6.03;;;9.20;99.90;;;;;;4864840;29;20509;-76
2022/04/30 07:07:16;;;;;;;10.38;5.82;;;9.20;99.90;;;;;;4864384;29;20478;-78
2022/04/30 07:09:42;;;;;;;12.50;6.03;;;9.20;99.90;;;;;;4864234;29;20064;-79
2022/04/30 07:12:09;;;;;;;11.10;5.53;;;9.20;99.90;;;;;;4864203;29;20041;-78
2022/04/30 07:14:36;;;;;;;10.13;6.25;;;9.30;99.90;;;;;;4864312;29;20053;-77
2022/04/30 07:17:09;;;;;;;9.13;5.72;;;9.30;99.90;;;;;;4864013;29;20057;-77
2022/04/30 07:19:35;;;;;;;9.20;4.90;;;9.30;99.90;;;;;;4880951;29;20056;-81
2022/04/30 07:22:02;;;;;;;10.80;5.40;;;9.40;99.90;;;;;;4864354;29;20053;-80
2022/04/30 07:24:28;;;;;;;9.02;5.30;;;9.40;99.90;;;;;;4863990;29;20427;-80
2022/04/30 07:26:54;;;;;;;8.65;5.78;;;9.50;99.90;;;;;;4880878;29;20049;-80
2022/04/30 07:29:20;;;;;;;10.93;5.80;;;9.60;99.90;;;;;;4880593;29;20049;-80
2022/04/30 07:31:46;;;;;;;9.75;5.22;;;9.60;99.90;;;;;;4880595;29;20057;-79
2022/04/30 07:34:12;;;;;;;8.10;5.25;;;9.70;99.90;;;;;;4863803;29;20072;-79
2022/04/30 07:36:38;;;;;;;8.35;5.40;;;9.70;99.90;;;;;;4863724;29;20057;-81
2022/04/30 07:39:05;;;;;;;8.43;5.07;;;9.80;99.90;;;;;;4864087;29;20516;-79
2022/04/30 07:41:31;;;;;;;9.73;5.55;;;9.70;99.90;;;;;;4863701;29;20413;-79
2022/04/30 07:43:56;;;;;;;9.07;5.13;;;9.80;99.90;;;;;;4863072;29;20064;-79
2022/04/30 07:46:22;;;;;;;8.18;5.60;;;9.90;99.90;;;;;;4863539;29;20049;-79
2022/04/30 07:48:49;;;;;;;10.07;5.20;;;9.90;99.90;;;;;;4863603;29;20057;-79
2022/04/30 07:51:23;;;;;;;10.45;5.28;;;10.10;99.90;;;;;;4863517;29;20542;-79
2022/04/30 07:53:49;;;;;;;7.38;5.20;;;10.20;99.90;;;;;;4863580;29;20049;-79
2022/04/30 07:56:15;;;;;;;9.43;5.00;;;10.20;99.90;;;;;;4863397;29;20089;-79
2022/04/30 07:58:41;;;;;;;9.18;5.35;;;10.40;99.90;;;;;;4880352;29;20034;-79
2022/04/30 08:01:07;;;;;;;10.10;5.45;;;10.60;99.90;;;;;;4863732;29;20061;-79
2022/04/30 08:03:33;;;;;;;10.55;5.38;;;10.70;99.90;;;;;;4863642;29;20047;-80
2022/04/30 08:05:59;;;;;;;9.55;5.25;;;10.90;99.90;;;;;;4880055;29;20045;-79
2022/04/30 08:08:25;;;;;;;9.27;5.32;;;11.20;99.90;;;;;;4863531;29;20132;-80
2022/04/30 08:10:51;;;;;;;8.48;5.22;;;11.40;99.90;;;;;;4863265;29;20446;-80
2022/04/30 08:13:16;;;;;;;10.35;5.78;;;11.60;99.90;;;;;;4863286;29;20053;-80
2022/04/30 08:15:43;;;;;;;8.20;4.70;;;11.60;99.90;;;;;;4863392;29;20112;-80
2022/04/30 08:18:12;;;;;;;9.23;5.15;;;11.40;99.90;;;;;;4863101;29;20053;-80
2022/04/30 08:20:38;;;;;;;9.90;5.05;;;11.40;99.90;;;;;;4879772;29;20045;-80
2022/04/30 08:23:06;;;;;;;9.40;5.80;;;11.40;99.90;;;;;;4879813;29;20131;-79
2022/04/30 08:25:32;;;;;;;11.52;5.38;;;11.40;99.90;;;;;;4863053;29;20549;-80
2022/04/30 08:27:58;;;;;;;9.30;5.43;;;11.40;99.90;;;;;;4879924;29;20045;-80
2022/04/30 08:30:23;;;;;;;10.57;5.40;;;11.50;99.90;;;;;;4863300;29;20085;-79
2022/04/30 08:32:49;;;;;;;9.70;5.70;;;11.50;99.90;;;;;;4863257;29;20051;-80
2022/04/30 08:35:14;;;;;;;9.73;5.25;;;11.50;99.90;;;;;;4863010;29;20041;-80
2022/04/30 08:37:40;;;;;;;9.25;5.57;;;11.50;99.90;;;;;;4862917;29;20097;-79
2022/04/30 08:40:06;;;;;;;11.57;6.55;;;11.40;99.90;;;;;;4862959;29;20533;-77
2022/04/30 08:42:32;;;;;;;9.70;5.30;;;11.50;99.90;;;;;;4879566;29;20572;-77
2022/04/30 08:45:01;;;;;;;9.95;5.10;;;11.40;99.90;;;;;;4862756;29;20084;-76
2022/04/30 08:47:29;;;;;;;9.50;5.15;;;11.60;99.90;;;;;;4862835;29;20056;-76
2022/04/30 08:49:56;;;;;;;8.68;5.70;;;11.70;99.90;;;;;;4862814;29;20123;-77
2022/04/30 08:52:22;;;;;;;9.77;5.53;;;11.70;99.90;;;;;;4862803;29;20053;-76
2022/04/30 08:54:48;;;;;;;10.68;5.70;;;11.90;99.90;;;;;;4862669;29;20049;-76
2022/04/30 08:57:15;;;;;;;9.68;5.60;;;11.90;99.90;;;;;;4864795;29;20057;-75
2022/04/30 08:59:41;;;;;;;8.80;5.55;;;11.90;99.90;;;;;;4892965;29;20049;-76
2022/04/30 09:02:11;;;;;;;7.47;5.38;;;12.10;99.90;;;;;;4866633;29;20064;-75
2022/04/30 09:04:43;;;;;;;10.27;5.32;;;12.20;99.90;;;;;;4866200;29;20132;-76
2022/04/30 09:07:14;;;;;;;9.05;5.60;;;12.30;99.90;;;;;;4882886;29;20063;-75
2022/04/30 09:09:40;;;;;;;9.10;5.40;;;12.50;99.90;;;;;;4882885;29;20474;-75
2022/04/30 09:12:11;;;;;;;9.32;5.93;;;12.50;99.90;;;;;;4881616;29;20498;-75
2022/04/30 09:14:41;;;;;;;8.10;5.55;;;12.50;99.90;;;;;;4866003;29;20057;-76
2022/04/30 09:17:12;;;;;;;8.05;5.63;;;12.40;99.90;;;;;;4866124;29;20072;-75
2022/04/30 09:19:54;;;;;;;10.43;6.03;;;12.40;99.90;;;;;;4865967;29;20061;-75
2022/04/30 09:22:33;;;;;;;8.85;5.30;;;12.50;99.90;;;;;;4866262;29;20489;-75
2022/04/30 09:25:03;;;;;;;10.30;5.80;;;12.60;99.90;;;;;;4865914;29;20048;-75
2022/04/30 09:27:29;;;;;;;11.15;5.57;;;12.50;99.90;;;;;;4865974;29;20056;-75
2022/04/30 09:29:55;;;;;;;7.78;5.57;;;12.40;99.90;;;;;;4882752;29;20073;-75
2022/04/30 09:32:26;;;;;;;7.40;5.63;;;12.40;99.90;;;;;;4866100;29;20120;-75
2022/04/30 09:37:57;;;;;;;11.00;5.65;;;12.40;99.90;;;;;;4773945;30;20559;-76
2022/04/30 09:40:23;;;;;;;11.63;5.65;;;12.30;99.90;;;;;;4773849;30;20055;-76
2022/04/30 09:42:49;;;;;;;10.23;5.53;;;12.40;99.90;;;;;;4817324;29;20068;-76
2022/04/30 09:45:29;;;;;;;8.45;5.40;;;12.30;99.90;;;;;;4880903;29;20414;-76
2022/04/30 09:47:57;;;;;;;10.25;5.80;;;12.30;99.90;;;;;;4865555;29;20453;-76
2022/04/30 09:55:54;;;;;;;8.20;5.00;;;11.90;99.90;;;;;;4865286;29;20064;-76
2022/04/30 09:58:25;;;;;;;10.40;5.93;;;12.20;99.90;;;;;;4865564;29;20056;-76
2022/04/30 10:00:55;;;;;;;8.77;5.93;;;12.30;99.90;;;;;;4882267;29;20155;-76
2022/04/30 10:03:25;;;;;;;9.65;5.90;;;12.30;99.90;;;;;;4865257;29;20053;-76
2022/04/30 10:06:03;;;;;;;10.85;5.90;;;12.30;99.90;;;;;;4880784;29;20536;-76
2022/04/30 10:08:32;;;;;;;10.10;6.70;;;12.40;99.90;;;;;;4864945;29;20053;-77
2022/04/30 10:11:15;;;;;;;11.35;6.60;;;12.50;99.90;;;;;;4882074;29;20397;-76
2022/04/30 10:14:02;;;;;;;9.18;6.45;;;12.40;99.90;;;;;;4865014;29;20105;-76
2022/04/30 10:16:28;;;;;;;8.32;5.60;;;12.40;99.90;;;;;;4865019;29;20087;-76
2022/04/30 10:19:36;;;;;;;11.40;5.72;;;12.50;99.90;;;;;;4865016;29;20497;-76
2022/04/30 10:22:16;;;;;;;8.75;5.45;;;12.60;99.90;;;;;;4860509;29;20056;-76
2022/04/30 10:24:47;;;;;;;11.82;6.55;;;12.60;99.90;;;;;;4879453;29;20051;-76
2022/04/30 10:27:14;;;;;;;12.35;6.75;;;12.60;99.90;;;;;;4883589;29;20060;-76
2022/04/30 10:29:54;;;;;;;8.52;5.72;;;12.60;99.90;;;;;;4883419;29;20044;-76
2022/04/30 10:32:34;;;;;;;8.57;5.18;;;12.70;99.90;;;;;;4880766;29;20049;-76
2022/04/30 10:35:01;;;;;;;8.23;5.15;;;12.50;99.90;;;;;;4883279;29;20401;-76
2022/04/30 10:37:29;;;;;;;8.73;5.35;;;12.50;99.90;;;;;;4883229;29;20048;-76
2022/04/30 10:40:21;;;;;;;7.65;5.15;;;12.40;99.90;;;;;;4883393;29;20147;-76
2022/04/30 10:42:46;;;;;;;8.93;5.25;;;12.20;99.90;;;;;;4881359;29;20064;-76
2022/04/30 10:45:16;;;;;;;7.47;5.70;;;12.20;99.90;;;;;;4882945;29;20049;-76
2022/04/30 10:47:55;;;;;;;8.75;5.50;;;12.20;99.90;;;;;;4882968;29;20123;-76
2022/04/30 10:50:22;;;;;;;8.48;5.60;;;12.10;99.90;;;;;;4883065;29;20063;-76
2022/04/30 10:52:49;;;;;;;9.13;5.38;;;12.10;99.90;;;;;;4883163;29;20060;-76
2022/04/30 10:55:16;;;;;;;8.65;6.13;;;12.10;99.90;;;;;;4882275;29;20048;-76
2022/04/30 10:57:44;;;;;;;7.47;5.10;;;12.10;99.90;;;;;;4883072;29;20084;-76
2022/04/30 11:00:11;;;;;;;10.60;5.05;;;11.90;99.90;;;;;;4882888;29;20052;-76
2022/04/30 11:02:36;;;;;;;10.23;5.57;;;11.90;99.90;;;;;;4883056;29;20052;-76
2022/04/30 11:05:03;;;;;;;8.10;5.45;;;11.80;99.90;;;;;;4882319;29;20051;-76
2022/04/30 11:07:31;;;;;;;9.00;5.35;;;11.80;99.90;;;;;;4882946;29;20056;-76
2022/04/30 11:09:56;;;;;;;8.27;5.35;;;11.70;99.90;;;;;;4882714;29;20048;-75
2022/04/30 11:12:33;;;;;;;8.65;5.60;;;11.70;99.90;;;;;;4882553;29;20136;-75
2022/04/30 11:14:58;;;;;;;8.57;5.53;;;11.50;99.90;;;;;;4882617;29;20045;-75
2022/04/30 11:17:25;;;;;;;10.05;5.13;;;11.60;99.90;;;;;;4882503;29;20107;-76
2022/04/30 11:19:51;;;;;;;8.68;5.47;;;11.40;99.90;;;;;;4882027;29;20493;-75
2022/04/30 11:22:17;;;;;;;10.45;6.70;;;11.40;99.90;;;;;;4882491;29;20139;-76
2022/04/30 11:24:43;;;;;;;10.13;5.75;;;11.30;99.90;;;;;;4881711;29;20088;-75
2022/04/30 11:27:10;;;;;;;9.10;5.93;;;11.40;99.90;;;;;;4882598;29;20088;-75
2022/04/30 11:29:37;;;;;;;9.55;5.97;;;11.40;99.90;;;;;;4882564;29;20097;-75
2022/04/30 11:32:04;;;;;;;11.20;6.40;;;11.40;99.90;;;;;;4882507;29;20053;-75
2022/04/30 11:34:30;;;;;;;9.95;6.43;;;11.50;99.90;;;;;;4881868;29;20056;-75
2022/04/30 11:36:58;;;;;;;8.30;5.35;;;11.50;99.90;;;;;;4882098;29;20059;-75
2022/04/30 11:39:24;;;;;;;8.48;5.85;;;11.60;99.90;;;;;;4882040;29;20059;-75
2022/04/30 11:41:52;;;;;;;8.13;6.30;;;11.60;99.90;;;;;;4882134;29;20544;-76
2022/04/30 11:44:23;;;;;;;7.80;6.05;;;11.60;99.90;;;;;;4889250;29;20139;-75
2022/04/30 11:46:51;;;;;;;8.63;6.55;;;11.80;99.90;;;;;;4897661;29;20549;-75
2022/04/30 11:49:22;;;;;;;9.70;6.07;;;11.90;99.90;;;;;;4897547;29;20056;-75
2022/04/30 11:51:50;;;;;;;9.68;5.72;;;11.90;99.90;;;;;;4897373;29;20096;-75
2022/04/30 11:54:18;;;;;;;13.23;6.22;;;12.10;99.90;;;;;;4893119;29;20049;-75
2022/04/30 11:56:44;;;;;;;8.45;5.32;;;12.20;99.90;;;;;;4890806;29;20139;-75
2022/04/30 11:59:11;;;;;;;10.15;6.22;;;12.20;99.90;;;;;;4897339;29;20131;-75
2022/04/30 12:01:38;;;;;;;10.73;6.50;;;12.40;99.90;;;;;;4897632;29;20139;-75
2022/04/30 12:04:09;;;;;;;8.73;5.35;;;12.40;99.90;;;;;;4893835;29;20509;-75
2022/04/30 12:06:39;;;;;;;10.30;6.80;;;12.30;99.90;;;;;;4882009;29;20056;-75
2022/04/30 12:09:16;;;;;;;11.48;7.60;;;12.30;99.90;;;;;;4897087;29;20111;-76
2022/04/30 12:11:53;;;;;;;11.02;6.47;;;12.20;99.90;;;;;;4897126;29;20055;-76
2022/04/30 12:14:19;;;;;;;12.57;5.68;;;12.00;99.90;;;;;;4898462;29;20085;-76
2022/04/30 12:16:48;;;;;;;11.40;5.90;;;12.20;99.90;;;;;;4897017;29;20104;-74
2022/04/30 12:25:17;;;;;;;9.90;5.93;;;12.40;99.90;;;;;;4897016;29;20175;-76
2022/04/30 12:27:58;;;;;;;9.60;6.13;;;12.20;99.90;;;;;;4896970;29;20055;-79
2022/04/30 12:30:24;;;;;;;8.02;5.45;;;12.00;99.90;;;;;;4897233;29;20052;-79
2022/04/30 12:33:04;;;;;;;8.43;6.32;;;11.70;99.90;;;;;;4896673;29;20399;-80
2022/04/30 12:35:32;;;;;;;8.25;5.60;;;11.80;99.90;;;;;;4896935;29;20049;-78
2022/04/30 12:38:08;;;;;;;9.77;5.38;;;11.80;99.90;;;;;;4898334;29;20067;-78
2022/04/30 12:40:36;;;;;;;9.00;5.78;;;11.70;99.90;;;;;;4898239;29;20045;-78
2022/04/30 12:43:03;;;;;;;9.60;6.32;;;11.80;99.90;;;;;;4898166;29;20040;-78
2022/04/30 12:45:29;;;;;;;7.38;5.50;;;12.00;99.90;;;;;;4881897;29;20045;-77
2022/04/30 12:47:55;;;;;;;8.88;5.25;;;11.90;99.90;;;;;;4881196;29;20045;-77
2022/04/30 12:50:21;;;;;;;7.75;5.15;;;12.10;99.90;;;;;;4881158;29;20064;-78
2022/04/30 12:52:46;;;;;;;7.82;5.43;;;12.30;99.90;;;;;;4881187;29;20101;-78
2022/04/30 12:55:14;;;;;;;8.25;4.97;;;12.50;99.90;;;;;;4881184;29;20055;-78
2022/04/30 12:57:40;;;;;;;10.18;5.57;;;12.60;99.90;;;;;;4881137;29;20060;-78
2022/04/30 13:00:06;;;;;;;9.02;5.60;;;12.60;99.90;;;;;;4881393;29;20047;-77
2022/04/30 13:02:32;;;;;;;11.35;5.40;;;12.60;99.90;;;;;;4897817;29;20064;-78
2022/04/30 13:04:58;;;;;;;6.63;4.90;;;12.90;99.90;;;;;;4881104;29;20478;-78
2022/04/30 13:07:24;;;;;;;8.10;4.95;;;12.90;99.90;;;;;;4881009;29;20085;-76
2022/04/30 13:15:18;;;;;;;8.73;4.95;;;13.00;99.90;;;;;;4880960;29;20116;-78
2022/04/30 13:17:44;;;;;;;8.43;5.13;;;13.30;99.90;;;;;;4880891;29;20052;-78
2022/04/30 13:20:11;;;;;;;8.73;5.80;;;13.50;99.90;;;;;;4897663;29;20055;-78
2022/04/30 13:22:37;;;;;;;9.55;5.10;;;13.60;99.90;;;;;;4897714;29;20136;-79
2022/04/30 13:25:04;;;;;;;6.57;4.68;;;13.50;99.90;;;;;;4880932;29;20084;-79
2022/04/30 13:27:31;;;;;;;8.57;4.88;;;13.40;99.90;;;;;;4897508;29;20055;-78
2022/04/30 13:29:57;;;;;;;5.30;4.38;;;13.50;99.90;;;;;;4897710;29;20132;-78